createdAt,value
2023-04-18T00:01:58.862Z,97315.16
2023-04-18T00:04:25.520Z,97292.88
2023-04-18T00:08:22.277Z,97321.47
2023-04-18T00:10:25.567Z,97311.25
2023-04-18T00:12:52.285Z,97315.97
2023-04-18T00:15:18.655Z,97304.94
2023-04-18T00:17:45.095Z,97302.13
2023-04-18T00:20:11.681Z,97318.91
2023-04-18T00:22:38.314Z,97307.34
2023-04-18T00:25:04.884Z,97309.78
2023-04-18T00:27:31.345Z,97294.09
2023-04-18T00:29:57.723Z,97298.16
2023-04-18T00:32:24.132Z,97312.41
2023-04-18T00:34:50.520Z,97322.00
2023-04-18T00:37:17.240Z,97321.19
2023-04-18T00:39:43.656Z,97312.13
2023-04-18T00:42:10.009Z,97326.53
2023-04-18T00:44:36.380Z,97310.53
2023-04-18T00:47:02.765Z,97322.03
2023-04-18T00:49:29.224Z,97317.34
2023-04-18T00:51:55.817Z,97304.84
2023-04-18T00:54:22.340Z,97320.97
2023-04-18T00:56:48.768Z,97337.47
2023-04-18T00:59:15.119Z,97318.31
2023-04-18T01:01:41.886Z,97322.25
2023-04-18T01:04:08.456Z,97312.81
2023-04-18T01:06:35.443Z,97319.34
2023-04-18T01:09:01.924Z,97326.22
2023-04-18T01:11:28.360Z,97334.22
2023-04-18T01:13:58.351Z,97295.22
2023-04-18T01:16:24.762Z,97303.31
2023-04-18T01:18:51.343Z,97325.38
2023-04-18T01:21:17.701Z,97301.88
2023-04-18T01:23:45.248Z,97297.38
2023-04-18T01:26:11.605Z,97317.22
2023-04-18T01:28:37.999Z,97302.53
2023-04-18T01:31:04.416Z,97295.22
2023-04-18T01:33:30.834Z,97296.03
2023-04-18T01:35:57.209Z,97308.50
2023-04-18T01:38:23.613Z,97294.31
2023-04-18T01:40:50.148Z,97318.59
2023-04-18T01:43:16.539Z,97309.81
2023-04-18T01:45:42.948Z,97327.72
2023-04-18T01:48:09.354Z,97307.19
2023-04-18T01:50:35.798Z,97305.25
2023-04-18T01:53:02.265Z,97307.72
2023-04-18T01:55:28.670Z,97316.66
2023-04-18T02:03:55.018Z,97293.97
2023-04-18T02:06:21.560Z,97285.16
2023-04-18T02:08:47.974Z,97297.22
2023-04-18T02:11:14.427Z,97303.25
2023-04-18T02:13:43.582Z,97277.78
2023-04-18T02:16:12.997Z,97305.91
2023-04-18T02:18:39.513Z,97306.44
2023-04-18T02:21:05.966Z,97293.41
2023-04-18T02:23:32.410Z,97305.47
2023-04-18T02:25:58.820Z,97310.00
2023-04-18T02:28:25.257Z,97316.13
2023-04-18T02:30:51.651Z,97320.88
2023-04-18T02:33:18.082Z,97316.13
2023-04-18T02:35:44.442Z,97310.25
2023-04-18T02:38:10.797Z,97327.16
2023-04-18T02:40:37.270Z,97309.41
2023-04-18T02:43:03.705Z,97322.72
2023-04-18T02:45:30.072Z,97308.03
2023-04-18T02:47:56.917Z,97308.50
2023-04-18T02:50:23.880Z,97325.88
2023-04-18T02:52:50.243Z,97300.00
2023-04-18T02:55:16.769Z,97292.94
2023-04-18T02:57:43.254Z,97333.91
2023-04-18T03:00:09.917Z,97318.66
2023-04-18T03:02:36.411Z,97294.78
2023-04-18T03:05:03.076Z,97325.81
2023-04-18T03:07:29.598Z,97307.41
2023-04-18T03:09:56.256Z,97327.44
2023-04-18T03:12:22.709Z,97316.31
2023-04-18T03:14:49.098Z,97317.94
2023-04-18T03:17:15.590Z,97323.16
2023-04-18T03:19:42.020Z,97312.63
2023-04-18T03:22:08.399Z,97318.53
2023-04-18T03:24:34.799Z,97301.88
2023-04-18T03:27:01.185Z,97337.84
2023-04-18T03:29:27.618Z,97311.22
2023-04-18T03:31:54.080Z,97313.81
2023-04-18T03:34:20.519Z,97306.38
2023-04-18T03:36:48.249Z,97310.78
2023-04-18T03:39:15.051Z,97301.06
2023-04-18T03:41:41.507Z,97324.75
2023-04-18T03:44:07.922Z,97285.47
2023-04-18T03:46:34.560Z,97340.16
2023-04-18T03:49:01.044Z,97309.25
2023-04-18T03:51:29.905Z,97311.69
2023-04-18T03:53:56.304Z,97307.78
2023-04-18T03:56:22.635Z,97328.47
2023-04-18T03:58:49.004Z,97327.88
2023-04-18T04:01:15.460Z,97317.72
2023-04-18T04:03:42.007Z,97326.25
2023-04-18T04:06:08.520Z,97338.50
2023-04-18T04:08:34.966Z,97318.53
2023-04-18T04:11:01.374Z,97313.75
2023-04-18T04:13:27.781Z,97338.38
2023-04-18T04:15:54.194Z,97322.78
2023-04-18T04:18:20.646Z,97334.13
2023-04-18T04:20:47.525Z,97318.28
2023-04-18T04:23:13.935Z,97326.84
2023-04-18T04:25:40.301Z,97334.47
2023-04-18T04:28:06.742Z,97326.50
2023-04-18T04:30:33.234Z,97345.22
2023-04-18T04:32:59.677Z,97333.63
2023-04-18T04:35:26.147Z,97335.50
2023-04-18T04:37:59.335Z,97321.94
2023-04-18T04:40:25.713Z,97339.31
2023-04-18T04:42:52.092Z,97339.56
2023-04-18T04:45:18.507Z,97341.31
2023-04-18T04:47:44.887Z,97341.75
2023-04-18T04:50:11.377Z,97353.00
2023-04-18T04:52:37.794Z,97334.09
2023-04-18T04:55:04.296Z,97331.22
2023-04-18T04:57:30.727Z,97345.13
2023-04-18T04:59:57.239Z,97316.78
2023-04-18T05:02:23.900Z,97334.44
2023-04-18T05:04:50.660Z,97336.09
2023-04-18T05:07:17.336Z,97358.41
2023-04-18T05:09:43.769Z,97353.00
2023-04-18T05:12:10.155Z,97339.91
2023-04-18T05:14:36.619Z,97349.63
2023-04-18T05:17:03.044Z,97360.28
2023-04-18T05:19:29.661Z,97368.25
2023-04-18T05:21:56.110Z,97360.31
2023-04-18T05:24:22.486Z,97353.34
2023-04-18T05:26:48.804Z,97364.69
2023-04-18T05:29:15.239Z,97370.00
2023-04-18T05:31:41.647Z,97378.00
2023-04-18T05:34:55.178Z,97373.34
2023-04-18T05:42:36.106Z,97371.22
2023-04-18T05:45:02.542Z,97351.84
2023-04-18T05:47:28.997Z,97345.69
2023-04-18T05:49:55.409Z,97364.47
2023-04-18T05:52:21.839Z,97340.94
2023-04-18T05:54:48.231Z,97355.09
2023-04-18T05:57:14.682Z,97374.16
2023-04-18T05:59:41.185Z,97379.66
2023-04-18T06:02:07.531Z,97376.50
2023-04-18T06:04:34.116Z,97382.97
2023-04-18T06:07:00.634Z,97372.59
2023-04-18T06:09:26.995Z,97359.31
2023-04-18T06:11:53.466Z,97375.66
2023-04-18T06:14:19.878Z,97352.25
2023-04-18T06:16:46.246Z,97371.66
2023-04-18T06:19:12.638Z,97360.63
2023-04-18T06:21:39.112Z,97382.25
2023-04-18T06:24:05.638Z,97386.72
2023-04-18T06:26:32.145Z,97367.06
2023-04-18T06:28:58.632Z,97383.03
2023-04-18T06:31:25.122Z,97357.72
2023-04-18T06:33:51.678Z,97366.44
2023-04-18T06:36:18.110Z,97386.66
2023-04-18T06:38:44.591Z,97390.84
2023-04-18T06:41:11.017Z,97370.47
2023-04-18T06:43:37.423Z,97389.28
2023-04-18T06:46:06.932Z,97360.72
2023-04-18T06:48:33.410Z,97375.84
2023-04-18T06:50:59.768Z,97364.09
2023-04-18T06:53:26.206Z,97403.91
2023-04-18T06:55:52.700Z,97353.47
2023-04-18T06:58:19.097Z,97366.34
2023-04-18T07:00:45.664Z,97374.47
2023-04-18T07:03:12.202Z,97375.53
2023-04-18T07:05:39.109Z,97381.97
2023-04-18T07:08:05.563Z,97397.56
2023-04-18T07:10:32.221Z,97386.31
2023-04-18T07:12:58.638Z,97400.28
2023-04-18T07:15:25.064Z,97380.38
2023-04-18T07:17:51.557Z,97403.75
2023-04-18T07:20:17.978Z,97403.50
2023-04-18T07:22:44.397Z,97395.72
2023-04-18T07:25:10.854Z,97376.94
2023-04-18T07:27:37.221Z,97402.97
2023-04-18T07:30:03.890Z,97382.88
2023-04-18T07:32:30.296Z,97383.69
2023-04-18T07:34:56.726Z,97356.25
2023-04-18T07:37:23.243Z,97384.22
2023-04-18T07:39:49.814Z,97391.47
2023-04-18T07:42:16.207Z,97382.06
2023-04-18T07:44:42.949Z,97390.94
2023-04-18T07:47:09.371Z,97383.66
2023-04-18T07:49:35.766Z,97391.72
2023-04-18T07:52:02.234Z,97380.69
2023-04-18T07:54:28.742Z,97391.44
2023-04-18T07:56:55.159Z,97396.47
2023-04-18T07:59:21.549Z,97375.00
2023-04-18T08:01:48.047Z,97372.56
2023-04-18T08:04:14.694Z,97372.97
2023-04-18T08:06:41.203Z,97392.81
2023-04-18T08:09:07.587Z,97377.78
2023-04-18T08:11:34.107Z,97371.53
2023-04-18T08:14:00.626Z,97407.94
2023-04-18T08:16:27.134Z,97413.41
2023-04-18T08:18:53.573Z,97379.50
2023-04-18T08:21:20.086Z,97396.94
2023-04-18T08:23:46.786Z,97397.72
2023-04-18T08:26:13.218Z,97399.47
2023-04-18T08:28:39.650Z,97412.28
2023-04-18T08:31:06.070Z,97393.75
2023-04-18T08:33:32.473Z,97400.03
2023-04-18T08:35:58.842Z,97407.03
2023-04-18T08:41:36.649Z,97422.69
2023-04-18T08:44:03.776Z,97410.13
2023-04-18T08:46:33.119Z,97395.59
2023-04-18T08:48:59.472Z,97401.34
2023-04-18T08:51:29.257Z,97418.25
2023-04-18T08:53:55.651Z,97396.44
2023-04-18T08:56:22.101Z,97425.72
2023-04-18T08:58:48.545Z,97431.59
2023-04-18T09:01:14.939Z,97430.25
2023-04-18T09:03:41.966Z,97424.84
2023-04-18T09:06:09.288Z,97399.50
2023-04-18T09:08:35.714Z,97405.78
2023-04-18T09:11:21.282Z,97380.34
2023-04-18T09:13:47.810Z,97398.66
2023-04-18T09:16:14.249Z,97432.13
2023-04-18T09:18:40.694Z,97397.94
2023-04-18T09:21:19.374Z,97434.66
2023-04-18T09:23:46.050Z,97426.44
2023-04-18T09:26:12.469Z,97429.72
2023-04-18T09:28:38.835Z,97424.41
2023-04-18T09:31:08.953Z,97437.34
2023-04-18T09:33:35.332Z,97416.53
2023-04-18T09:36:20.930Z,97439.56
2023-04-18T09:38:47.696Z,97413.91
2023-04-18T09:41:14.312Z,97408.78
2023-04-18T09:43:41.161Z,97422.53
2023-04-18T09:46:07.773Z,97408.03
2023-04-18T09:48:34.313Z,97416.59
2023-04-18T09:51:10.012Z,97442.34
2023-04-18T09:53:39.828Z,97425.63
2023-04-18T09:56:06.656Z,97415.41
2023-04-18T09:58:33.116Z,97429.88
2023-04-18T10:00:59.542Z,97441.69
2023-04-18T10:03:28.132Z,97443.66
2023-04-18T10:05:56.508Z,97411.22
2023-04-18T10:08:24.054Z,97432.22
2023-04-18T10:10:50.476Z,97410.66
2023-04-18T10:13:16.983Z,97427.91
2023-04-18T10:15:44.410Z,97431.31
2023-04-18T10:18:14.167Z,97413.66
2023-04-18T10:20:40.616Z,97426.34
2023-04-18T10:23:28.012Z,97409.03
2023-04-18T10:25:54.529Z,97415.47
2023-04-18T10:32:14.477Z,97392.63
2023-04-18T10:34:41.126Z,97412.84
2023-04-18T10:37:07.520Z,97429.91
2023-04-18T10:39:49.354Z,97406.13
2023-04-18T10:42:15.715Z,97406.69
2023-04-18T10:44:42.091Z,97415.41
2023-04-18T10:47:08.803Z,97411.53
2023-04-18T10:49:38.053Z,97402.00
2023-04-18T10:52:04.645Z,97387.38
2023-04-18T10:54:37.412Z,97400.25
2023-04-18T10:57:04.006Z,97429.50
2023-04-18T10:59:30.985Z,97422.50
2023-04-18T11:01:59.227Z,97393.56
2023-04-18T11:04:25.959Z,97377.22
2023-04-18T11:06:53.024Z,97414.16
2023-04-18T11:09:19.623Z,97400.41
2023-04-18T11:11:46.050Z,97408.84
2023-04-18T11:14:12.615Z,97408.31
2023-04-18T11:16:39.542Z,97408.66
2023-04-18T11:19:21.658Z,97405.63
2023-04-18T11:21:48.109Z,97391.31
2023-04-18T11:24:21.155Z,97394.78
2023-04-18T11:26:47.554Z,97388.34
2023-04-18T11:29:14.326Z,97402.28
2023-04-18T11:31:40.923Z,97361.06
2023-04-18T11:34:07.285Z,97369.63
2023-04-18T11:36:33.778Z,97376.44
2023-04-18T11:39:00.210Z,97404.22
2023-04-18T11:41:26.610Z,97429.38
2023-04-18T11:43:53.047Z,97414.84
2023-04-18T11:46:19.457Z,97414.56
2023-04-18T11:48:45.850Z,97396.28
2023-04-18T11:51:31.568Z,97396.59
2023-04-18T11:53:57.945Z,97410.84
2023-04-18T11:56:24.342Z,97411.28
2023-04-18T11:58:50.765Z,97403.22
2023-04-18T12:01:17.926Z,97411.81
2023-04-18T12:03:44.885Z,97410.44
2023-04-18T12:06:11.566Z,97396.81
2023-04-18T12:08:38.025Z,97381.94
2023-04-18T12:11:04.415Z,97405.78
2023-04-18T12:13:31.551Z,97406.06
2023-04-18T12:15:58.036Z,97404.75
2023-04-18T12:18:24.463Z,97415.97
2023-04-18T12:20:51.332Z,97403.53
2023-04-18T12:23:33.148Z,97389.00
2023-04-18T12:26:06.247Z,97389.66
2023-04-18T12:28:32.893Z,97398.28
2023-04-18T12:30:59.442Z,97393.69
2023-04-18T12:33:25.939Z,97396.91
2023-04-18T12:35:52.388Z,97408.41
2023-04-18T12:38:22.310Z,97388.25
2023-04-18T12:40:49.284Z,97386.72
2023-04-18T12:43:15.627Z,97394.16
2023-04-18T12:45:41.990Z,97398.94
2023-04-18T12:48:08.457Z,97359.41
2023-04-18T12:50:34.908Z,97380.28
2023-04-18T12:53:01.451Z,97378.38
2023-04-18T12:55:28.149Z,97372.22
2023-04-18T12:57:54.745Z,97336.13
2023-04-18T13:00:21.570Z,97391.53
2023-04-18T13:02:48.418Z,97356.75
2023-04-18T13:05:15.277Z,97384.63
2023-04-18T13:07:41.738Z,97380.81
2023-04-18T13:10:08.911Z,97366.53
2023-04-18T13:12:35.382Z,97380.53
2023-04-18T13:15:01.860Z,97388.50
2023-04-18T13:17:28.289Z,97396.03
2023-04-18T13:19:54.718Z,97378.59
2023-04-18T13:22:21.133Z,97384.09
2023-04-18T13:24:47.727Z,97393.03
2023-04-18T13:27:14.337Z,97396.41
2023-04-18T13:29:41.012Z,97381.38
2023-04-18T13:32:07.942Z,97367.03
2023-04-18T13:34:36.121Z,97355.56
2023-04-18T13:37:02.746Z,97366.22
2023-04-18T13:39:29.812Z,97352.28
2023-04-18T13:41:56.203Z,97356.09
2023-04-18T13:44:22.657Z,97353.41
2023-04-18T13:46:49.126Z,97366.97
2023-04-18T13:49:15.718Z,97343.09
2023-04-18T13:51:42.260Z,97378.03
2023-04-18T13:54:08.680Z,97371.81
2023-04-18T13:56:35.015Z,97398.66
2023-04-18T13:59:01.384Z,97349.22
2023-04-18T14:01:27.898Z,97368.38
2023-04-18T14:13:06.888Z,97406.63
2023-04-18T14:15:33.510Z,97386.72
2023-04-18T14:17:59.979Z,97401.38
2023-04-18T14:20:26.532Z,97395.78
2023-04-18T14:22:53.350Z,97387.50
2023-04-18T14:25:19.818Z,97383.50
2023-04-18T14:27:46.964Z,97383.00
2023-04-18T14:30:14.001Z,97382.50
2023-04-18T14:32:40.536Z,97379.06
2023-04-18T14:35:07.265Z,97410.72
2023-04-18T14:37:33.783Z,97388.53
2023-04-18T14:40:00.221Z,97403.78
2023-04-18T14:42:26.712Z,97383.53
2023-04-18T14:44:53.053Z,97389.72
2023-04-18T14:47:19.615Z,97388.28
2023-04-18T14:49:45.995Z,97395.72
2023-04-18T14:52:12.828Z,97394.34
2023-04-18T14:54:39.262Z,97391.22
2023-04-18T14:57:05.712Z,97369.94
2023-04-18T14:59:32.151Z,97387.44
2023-04-18T15:01:58.643Z,97396.56
2023-04-18T15:04:25.276Z,97364.22
2023-04-18T15:06:51.917Z,97398.84
2023-04-18T15:09:18.333Z,97417.09
2023-04-18T15:11:44.791Z,97390.22
2023-04-18T15:14:11.243Z,97398.00
2023-04-18T15:16:37.727Z,97414.63
2023-04-18T15:19:04.209Z,97411.66
2023-04-18T15:21:30.664Z,97405.53
2023-04-18T15:23:57.092Z,97411.94
2023-04-18T15:26:23.587Z,97399.78
2023-04-18T15:28:50.019Z,97403.69
2023-04-18T15:31:17.042Z,97388.28
2023-04-18T15:33:43.656Z,97408.22
2023-04-18T15:36:10.126Z,97395.50
2023-04-18T15:38:36.545Z,97394.47
2023-04-18T15:41:02.932Z,97415.88
2023-04-18T15:43:29.315Z,97408.19
2023-04-18T15:45:55.893Z,97382.19
2023-04-18T15:48:22.351Z,97422.50
2023-04-18T15:50:51.748Z,97400.09
2023-04-18T15:53:18.229Z,97432.09
2023-04-18T15:55:44.640Z,97404.81
2023-04-18T15:58:11.031Z,97426.72
2023-04-18T16:00:37.634Z,97416.06
2023-04-18T16:03:07.007Z,97411.22
2023-04-18T16:05:33.482Z,97458.72
2023-04-18T16:07:59.816Z,97429.50
2023-04-18T16:10:26.208Z,97425.97
2023-04-18T16:12:52.644Z,97423.22
2023-04-18T16:15:19.041Z,97440.00
2023-04-18T16:17:45.478Z,97430.38
2023-04-18T16:20:11.911Z,97452.69
2023-04-18T16:22:41.368Z,97442.03
2023-04-18T16:25:14.596Z,97433.13
2023-04-18T16:27:41.226Z,97446.66
2023-04-18T16:30:07.943Z,97432.16
2023-04-18T16:32:34.400Z,97454.34
2023-04-18T16:35:01.018Z,97429.00
2023-04-18T16:37:27.372Z,97440.25
2023-04-18T16:39:53.799Z,97442.41
2023-04-18T16:42:20.187Z,97447.50
2023-04-18T16:44:46.653Z,97439.00
2023-04-18T16:47:13.085Z,97470.44
2023-04-18T16:49:41.680Z,97460.19
2023-04-18T16:52:08.038Z,97442.97
2023-04-18T16:54:34.505Z,97448.38
2023-04-18T16:57:00.973Z,97433.53
2023-04-18T16:59:27.409Z,97434.59
2023-04-18T17:01:54.073Z,97441.75
2023-04-18T17:04:21.110Z,97454.38
2023-04-18T17:06:47.525Z,97468.66
2023-04-18T17:09:14.287Z,97470.25
2023-04-18T17:11:41.041Z,97441.78
2023-04-18T17:14:07.554Z,97473.66
2023-04-18T17:16:34.621Z,97456.91
2023-04-18T17:19:01.112Z,97473.66
2023-04-18T17:21:27.565Z,97468.00
2023-04-18T17:23:53.998Z,97456.16
2023-04-18T17:26:20.601Z,97474.75
2023-04-18T17:28:47.002Z,97469.63
2023-04-18T17:31:13.913Z,97462.91
2023-04-18T17:33:40.315Z,97447.31
2023-04-18T17:36:07.138Z,97477.75
2023-04-18T17:38:33.564Z,97478.28
2023-04-18T17:41:00.439Z,97473.22
2023-04-18T17:43:26.831Z,97483.97
2023-04-18T17:45:53.368Z,97497.44
2023-04-18T17:48:19.852Z,97463.31
2023-04-18T17:50:46.266Z,97477.81
2023-04-18T17:53:12.783Z,97493.22
2023-04-18T17:55:42.100Z,97484.03
2023-04-18T17:58:08.473Z,97499.69
2023-04-18T18:00:35.055Z,97478.72
2023-04-18T18:03:01.875Z,97500.50
2023-04-18T18:05:29.728Z,97491.91
2023-04-18T18:07:56.189Z,97482.47
2023-04-18T18:10:23.062Z,97497.56
2023-04-18T18:12:49.634Z,97474.94
2023-04-18T18:15:16.152Z,97508.31
2023-04-18T18:17:42.630Z,97481.44
2023-04-18T18:20:09.194Z,97502.44
2023-04-18T18:22:35.702Z,97507.25
2023-04-18T18:25:02.135Z,97516.41
2023-04-18T18:27:28.565Z,97514.00
2023-04-18T18:29:55.149Z,97519.09
2023-04-18T18:32:21.546Z,97502.16
2023-04-18T18:34:47.935Z,97503.50
2023-04-18T18:37:14.637Z,97521.28
2023-04-18T18:39:41.060Z,97528.53
2023-04-18T18:42:07.521Z,97482.81
2023-04-18T18:44:33.996Z,97532.81
2023-04-18T18:47:00.428Z,97514.25
2023-04-18T18:49:26.865Z,97510.78
2023-04-18T18:51:53.352Z,97527.75
2023-04-18T18:54:19.921Z,97523.97
2023-04-18T18:56:46.415Z,97517.50
2023-04-18T18:59:13.167Z,97546.31
2023-04-18T19:01:39.879Z,97550.59
2023-04-18T19:04:06.421Z,97550.34
2023-04-18T19:06:32.968Z,97548.19
2023-04-18T19:09:00.968Z,97544.16
2023-04-18T19:11:27.462Z,97521.84
2023-04-18T19:13:53.949Z,97517.53
2023-04-18T19:16:20.459Z,97533.41
2023-04-18T19:18:46.909Z,97526.69
2023-04-18T19:21:13.444Z,97546.56
2023-04-18T19:23:39.883Z,97546.59
2023-04-18T19:26:06.283Z,97534.22
2023-04-18T19:28:32.701Z,97552.22
2023-04-18T19:30:59.020Z,97536.63
2023-04-18T19:33:25.488Z,97518.09
2023-04-18T19:35:51.926Z,97547.13
2023-04-18T19:38:18.975Z,97520.22
2023-04-18T19:40:45.472Z,97537.16
2023-04-18T19:43:11.983Z,97560.84
2023-04-18T19:46:02.383Z,97547.94
2023-04-18T19:48:28.897Z,97548.72
2023-04-18T19:50:55.988Z,97543.59
2023-04-18T19:53:22.382Z,97536.09
2023-04-18T19:55:49.076Z,97566.47
2023-04-18T19:58:34.074Z,97524.81
2023-04-18T20:01:00.453Z,97542.81
2023-04-18T20:03:28.002Z,97564.84
2023-04-18T20:05:54.508Z,97557.03
2023-04-18T20:08:20.902Z,97555.16
2023-04-18T20:10:47.885Z,97547.09
2023-04-18T20:13:14.290Z,97544.69
2023-04-18T20:15:41.102Z,97556.78
2023-04-18T20:18:07.608Z,97534.19
2023-04-18T20:20:34.000Z,97558.66
2023-04-18T20:23:00.356Z,97550.06
2023-04-18T20:25:26.869Z,97540.38
2023-04-18T20:27:53.256Z,97546.81
2023-04-18T20:30:19.720Z,97546.53
2023-04-18T20:32:46.090Z,97541.72
2023-04-18T20:35:12.486Z,97546.56
2023-04-18T20:37:39.007Z,97532.84
2023-04-18T20:40:05.796Z,97548.69
2023-04-18T20:42:32.266Z,97545.19
2023-04-18T20:44:58.652Z,97535.78
2023-04-18T20:47:25.181Z,97538.47
2023-04-18T20:56:14.694Z,97550.53
2023-04-18T20:58:41.580Z,97549.75
2023-04-18T21:01:08.091Z,97554.34
2023-04-18T21:03:34.744Z,97526.63
2023-04-18T21:06:01.274Z,97552.72
2023-04-18T21:08:27.669Z,97547.06
2023-04-18T21:10:54.080Z,97548.69
2023-04-18T21:13:20.498Z,97533.09
2023-04-18T21:15:47.261Z,97522.88
2023-04-18T21:18:13.772Z,97558.09
2023-04-18T21:20:40.193Z,97547.59
2023-04-18T21:23:06.642Z,97529.31
2023-04-18T21:25:33.096Z,97527.72
2023-04-18T21:27:59.533Z,97533.63
2023-04-18T21:30:25.919Z,97523.16
2023-04-18T21:32:52.398Z,97542.22
2023-04-18T21:35:20.783Z,97529.84
2023-04-18T21:37:48.428Z,97540.34
2023-04-18T21:40:14.870Z,97543.31
2023-04-18T21:42:41.292Z,97553.78
2023-04-18T21:45:08.426Z,97528.00
2023-04-18T21:47:34.801Z,97553.00
2023-04-18T21:50:01.272Z,97552.69
2023-04-18T21:52:27.693Z,97545.16
2023-04-18T21:54:54.094Z,97539.50
2023-04-18T21:57:20.538Z,97519.09
2023-04-18T21:59:46.908Z,97528.50
2023-04-18T22:02:13.303Z,97532.28
2023-04-18T22:04:39.782Z,97519.66
2023-04-18T22:07:06.125Z,97537.41
2023-04-18T22:09:34.460Z,97518.31
2023-04-18T22:12:00.891Z,97538.19
2023-04-18T22:14:27.362Z,97513.72
2023-04-18T22:16:53.788Z,97509.69
2023-04-18T22:19:20.200Z,97523.16
2023-04-18T22:21:48.338Z,97495.19
2023-04-18T22:24:14.901Z,97545.19
2023-04-18T22:26:41.432Z,97505.13
2023-04-18T22:29:07.810Z,97511.06
2023-04-18T22:31:34.308Z,97518.81
2023-04-18T22:34:00.761Z,97522.63
2023-04-18T22:36:27.191Z,97510.25
2023-04-18T22:38:53.595Z,97500.28
2023-04-18T22:41:19.953Z,97530.41
2023-04-18T22:43:46.302Z,97516.13
2023-04-18T22:46:12.759Z,97539.75
2023-04-18T22:48:39.213Z,97521.22
2023-04-18T22:51:05.637Z,97505.63
2023-04-18T22:53:32.199Z,97519.91
2023-04-18T22:55:58.603Z,97493.28
2023-04-18T22:58:25.040Z,97522.84
2023-04-18T23:00:51.411Z,97539.25
2023-04-18T23:03:17.896Z,97491.69
2023-04-18T23:05:44.389Z,97495.72
2023-04-18T23:08:10.792Z,97498.38
2023-04-18T23:10:37.677Z,97484.94
2023-04-18T23:13:04.058Z,97505.63
2023-04-18T23:15:30.439Z,97504.84
2023-04-18T23:17:56.877Z,97507.25
2023-04-18T23:20:23.280Z,97522.28
2023-04-18T23:22:49.919Z,97497.84
2023-04-18T23:25:16.257Z,97513.69
2023-04-18T23:27:42.641Z,97504.03
2023-04-18T23:30:09.231Z,97518.56
2023-04-18T23:32:35.598Z,97494.91
2023-04-18T23:35:01.995Z,97502.69
2023-04-18T23:37:28.408Z,97498.91
2023-04-18T23:39:54.833Z,97513.19
2023-04-18T23:42:21.248Z,97488.16
2023-04-18T23:44:47.652Z,97479.31
2023-04-18T23:47:14.130Z,97506.72
2023-04-18T23:49:43.010Z,97498.09
2023-04-18T23:52:09.413Z,97529.28
2023-04-18T23:54:35.816Z,97495.41
2023-04-18T23:57:02.262Z,97465.88
2023-04-18T23:59:28.811Z,97457.53
